Time;durP1;ratioP1;P1;durP2;ratioP2;P2;SDS_P1;SDS_P2;PMS_P1;PMS_P2;Temp;Humidity;BMP_temperature;BMP_pressure;BME280_temperature;BME280_humidity;BME280_pressure;Samples;Min_cycle;Max_cycle;Signal;HPM_P1;HPM_P2
2023/09/19 00:01:33;;;;;;;6.73;1.00;;;15.20;99.90;;;;;;5018367;28;20445;-62
2023/09/19 00:03:59;;;;;;;1.90;0.90;;;15.20;99.90;;;;;;5017512;28;20448;-62
2023/09/19 00:06:27;;;;;;;1.57;0.83;;;15.20;99.90;;;;;;5013978;28;20187;-62
2023/09/19 00:08:54;;;;;;;4.23;1.30;;;15.20;99.90;;;;;;5015503;28;20441;-62
2023/09/19 00:11:20;;;;;;;1.93;0.90;;;15.20;99.90;;;;;;5018744;28;20490;-62
2023/09/19 00:13:49;;;;;;;1.67;0.70;;;15.20;99.90;;;;;;5022088;28;20437;-62
2023/09/19 00:16:15;;;;;;;4.93;1.20;;;15.20;99.90;;;;;;5023600;28;20182;-62
2023/09/19 00:18:42;;;;;;;3.97;1.00;;;15.20;99.90;;;;;;5020061;28;20440;-62
2023/09/19 00:21:08;;;;;;;4.90;0.90;;;15.20;99.90;;;;;;5022264;28;20187;-62
2023/09/19 00:23:33;;;;;;;1.60;0.63;;;15.20;99.90;;;;;;5016147;28;20442;-63
2023/09/19 00:26:00;;;;;;;1.37;0.70;;;15.30;99.90;;;;;;5017676;28;20271;-62
2023/09/19 00:28:31;;;;;;;1.57;0.97;;;15.20;99.90;;;;;;5020136;28;20543;-63
2023/09/19 00:31:01;;;;;;;1.80;0.77;;;15.20;99.90;;;;;;5012513;28;20481;-62
2023/09/19 00:33:27;;;;;;;1.40;0.60;;;15.20;99.90;;;;;;5016801;28;20979;-62
2023/09/19 00:35:57;;;;;;;1.77;0.80;;;15.10;99.90;;;;;;5016463;28;20934;-62
2023/09/19 00:38:26;;;;;;;3.97;1.47;;;15.10;99.90;;;;;;5022853;28;20800;-63
2023/09/19 00:40:53;;;;;;;4.30;0.60;;;15.20;99.90;;;;;;5016271;28;20433;-62
2023/09/19 00:43:20;;;;;;;2.17;0.77;;;15.10;99.90;;;;;;5019131;28;20435;-62
2023/09/19 00:45:48;;;;;;;1.60;0.77;;;15.10;99.90;;;;;;5014529;28;20441;-62
2023/09/19 00:48:15;;;;;;;1.33;0.60;;;15.10;99.90;;;;;;5015805;28;20440;-63
2023/09/19 00:50:45;;;;;;;1.30;0.70;;;15.20;99.90;;;;;;5016545;28;20488;-63
2023/09/19 00:53:15;;;;;;;2.50;0.97;;;15.20;99.90;;;;;;5022927;28;20466;-63
2023/09/19 00:55:42;;;;;;;1.77;0.80;;;15.10;99.90;;;;;;5020266;28;20465;-63
2023/09/19 00:58:10;;;;;;;8.33;0.90;;;15.10;99.90;;;;;;5018498;28;20437;-63
2023/09/19 01:00:36;;;;;;;5.10;0.80;;;15.10;99.90;;;;;;5013971;28;20433;-63
2023/09/19 01:03:02;;;;;;;1.80;1.00;;;15.10;99.90;;;;;;5020279;28;20533;-62
2023/09/19 01:05:28;;;;;;;1.20;0.53;;;15.10;99.90;;;;;;5017693;28;20515;-62
2023/09/19 01:07:53;;;;;;;1.50;0.90;;;15.10;99.90;;;;;;5014027;28;20226;-62
2023/09/19 01:10:20;;;;;;;1.40;0.70;;;15.10;99.90;;;;;;5015270;28;20700;-63
2023/09/19 01:13:08;;;;;;;2.37;0.60;;;15.00;99.90;;;;;;5015795;28;20185;-63
2023/09/19 01:15:42;;;;;;;1.77;0.93;;;15.10;99.90;;;;;;5013777;28;20508;-63
2023/09/19 01:18:11;;;;;;;1.80;0.90;;;15.10;99.90;;;;;;5016732;28;20947;-63
2023/09/19 01:20:52;;;;;;;2.13;0.73;;;15.10;99.90;;;;;;5014493;28;20437;-63
2023/09/19 01:23:23;;;;;;;2.30;1.23;;;15.00;99.90;;;;;;5016537;28;20506;-63
2023/09/19 01:26:14;;;;;;;2.37;1.00;;;15.00;99.90;;;;;;5015290;28;20467;-63
2023/09/19 01:29:01;;;;;;;1.40;0.67;;;15.00;99.90;;;;;;5010421;28;20433;-63
2023/09/19 01:31:33;;;;;;;1.53;0.70;;;15.10;99.90;;;;;;5012009;28;20480;-63
2023/09/19 01:34:07;;;;;;;1.50;0.80;;;15.10;99.90;;;;;;5021571;28;20476;-62
2023/09/19 01:36:38;;;;;;;2.33;0.60;;;15.10;99.90;;;;;;5020361;28;20436;-62
2023/09/19 01:39:11;;;;;;;2.10;0.80;;;15.10;99.90;;;;;;5011562;28;20449;-62
2023/09/19 01:42:09;;;;;;;4.80;1.03;;;15.20;99.90;;;;;;5010685;28;20457;-62
2023/09/19 01:44:48;;;;;;;1.33;0.70;;;15.20;99.90;;;;;;5014632;28;20784;-62
2023/09/19 01:47:23;;;;;;;2.67;0.70;;;15.20;99.90;;;;;;5013596;28;20445;-62
2023/09/19 01:50:10;;;;;;;1.57;0.60;;;15.20;99.90;;;;;;5015250;28;20437;-62
2023/09/19 01:52:47;;;;;;;2.60;0.97;;;15.20;99.90;;;;;;5017514;28;20465;-62
2023/09/19 01:55:17;;;;;;;1.50;0.80;;;15.30;99.90;;;;;;5013308;28;20440;-62
2023/09/19 01:57:53;;;;;;;1.30;0.50;;;15.20;99.90;;;;;;5010403;28;20416;-63
2023/09/19 02:00:21;;;;;;;2.23;0.83;;;15.20;99.90;;;;;;5013705;28;20418;-63
2023/09/19 02:02:48;;;;;;;2.90;1.00;;;15.20;99.90;;;;;;5010920;28;20775;-62
2023/09/19 02:05:23;;;;;;;2.83;1.33;;;15.20;99.90;;;;;;5017512;28;20425;-63
2023/09/19 02:07:49;;;;;;;1.50;0.63;;;15.10;99.90;;;;;;5012323;28;20918;-63
2023/09/19 02:10:14;;;;;;;1.50;0.70;;;15.00;99.90;;;;;;5013197;28;20442;-62
2023/09/19 02:12:40;;;;;;;1.60;0.80;;;15.00;99.90;;;;;;5013921;28;20189;-63
2023/09/19 02:15:06;;;;;;;1.27;0.53;;;14.90;99.90;;;;;;5000954;28;20184;-62
2023/09/19 02:17:32;;;;;;;1.50;0.70;;;14.90;99.90;;;;;;5011152;28;20552;-63
2023/09/19 02:19:58;;;;;;;2.17;0.77;;;14.90;99.90;;;;;;5015961;28;20446;-63
2023/09/19 02:22:24;;;;;;;2.23;0.90;;;14.80;99.90;;;;;;5022102;28;20269;-63
2023/09/19 02:24:50;;;;;;;1.90;0.87;;;14.80;99.90;;;;;;5013746;28;20564;-63
2023/09/19 02:27:17;;;;;;;1.30;0.70;;;14.80;99.90;;;;;;5024933;28;20278;-62
2023/09/19 02:29:43;;;;;;;2.23;0.90;;;14.80;99.90;;;;;;5013975;28;20441;-63
2023/09/19 02:32:09;;;;;;;1.70;0.70;;;14.80;99.90;;;;;;5024716;28;20483;-63
2023/09/19 02:34:36;;;;;;;4.27;0.90;;;14.90;99.90;;;;;;5018453;28;20191;-62
2023/09/19 02:37:06;;;;;;;3.50;1.10;;;14.80;99.90;;;;;;5015633;28;20191;-63
2023/09/19 02:39:32;;;;;;;6.93;0.97;;;14.80;99.90;;;;;;5017882;28;20461;-62
2023/09/19 02:41:57;;;;;;;4.20;1.20;;;14.80;99.90;;;;;;5013047;28;20497;-63
2023/09/19 02:44:23;;;;;;;1.40;0.80;;;14.70;99.90;;;;;;5015234;28;20450;-62
2023/09/19 02:46:50;;;;;;;1.60;0.83;;;14.70;99.90;;;;;;5016242;28;20190;-62
2023/09/19 02:49:17;;;;;;;3.40;0.87;;;14.70;99.90;;;;;;5017212;28;20631;-63
2023/09/19 02:51:43;;;;;;;1.63;0.70;;;14.70;99.90;;;;;;5015539;28;20461;-63
2023/09/19 02:54:09;;;;;;;2.33;1.10;;;14.70;99.90;;;;;;5017673;28;20442;-62
2023/09/19 02:56:35;;;;;;;3.40;1.03;;;14.80;99.90;;;;;;5020644;28;20418;-62
2023/09/19 02:59:01;;;;;;;3.00;0.97;;;14.80;99.90;;;;;;5020222;28;20440;-62
2023/09/19 03:01:30;;;;;;;3.30;1.07;;;14.80;99.90;;;;;;5019006;28;20446;-62
2023/09/19 03:03:56;;;;;;;4.03;1.03;;;14.80;99.90;;;;;;5018461;28;20446;-62
2023/09/19 03:06:23;;;;;;;1.90;0.90;;;14.80;99.90;;;;;;5013624;28;20456;-62
2023/09/19 03:08:51;;;;;;;1.60;0.80;;;14.90;99.90;;;;;;5020506;28;20228;-62
2023/09/19 03:11:21;;;;;;;4.70;1.03;;;14.90;99.90;;;;;;5017741;28;20828;-63
2023/09/19 03:13:50;;;;;;;2.10;1.00;;;15.00;99.90;;;;;;5015871;28;20438;-62
2023/09/19 03:16:16;;;;;;;1.83;0.97;;;15.00;99.90;;;;;;5014108;28;20429;-63
2023/09/19 03:18:42;;;;;;;2.80;1.00;;;15.00;99.90;;;;;;5018248;28;20832;-63
2023/09/19 03:21:07;;;;;;;1.50;0.80;;;15.00;99.90;;;;;;5021294;28;20706;-62
2023/09/19 03:23:33;;;;;;;2.13;0.70;;;15.10;99.90;;;;;;5019366;28;20194;-62
2023/09/19 03:25:59;;;;;;;2.07;0.90;;;15.10;99.90;;;;;;5019718;28;20190;-63
2023/09/19 03:28:25;;;;;;;1.63;0.83;;;15.10;99.90;;;;;;5019659;28;20225;-62
2023/09/19 03:31:05;;;;;;;6.47;1.20;;;15.10;99.90;;;;;;5019645;28;20213;-63
2023/09/19 03:33:33;;;;;;;1.50;1.00;;;15.10;99.90;;;;;;5026250;28;20205;-63
2023/09/19 03:36:00;;;;;;;2.37;1.10;;;15.00;99.90;;;;;;5014261;28;20441;-63
2023/09/19 03:38:27;;;;;;;5.87;0.83;;;15.00;99.90;;;;;;5023194;28;20468;-63
2023/09/19 03:40:53;;;;;;;1.70;0.87;;;15.10;99.90;;;;;;5014925;28;20454;-63
2023/09/19 03:43:19;;;;;;;3.47;1.37;;;15.10;99.90;;;;;;5020445;28;20449;-63
2023/09/19 03:45:46;;;;;;;1.37;0.73;;;15.10;99.90;;;;;;5012164;28;20183;-63
2023/09/19 03:48:12;;;;;;;1.80;0.73;;;15.10;99.90;;;;;;5012958;28;20277;-64
2023/09/19 03:50:39;;;;;;;2.03;1.00;;;15.00;99.90;;;;;;5013673;28;20549;-63
2023/09/19 03:53:06;;;;;;;2.33;0.73;;;15.00;99.90;;;;;;5012648;28;20931;-63
2023/09/19 03:55:32;;;;;;;3.40;1.40;;;15.00;99.90;;;;;;5012439;28;20800;-64
2023/09/19 03:57:58;;;;;;;1.90;1.03;;;15.00;99.90;;;;;;5011888;28;20436;-63
2023/09/19 04:00:26;;;;;;;2.80;1.10;;;14.90;99.90;;;;;;5023153;28;20639;-63
2023/09/19 04:02:52;;;;;;;1.70;0.90;;;14.90;99.90;;;;;;5013535;28;20278;-63
2023/09/19 04:05:19;;;;;;;2.07;1.10;;;14.90;99.90;;;;;;5015876;28;20425;-63
2023/09/19 04:07:44;;;;;;;2.23;0.93;;;14.80;99.90;;;;;;5015127;28;20418;-63
2023/09/19 04:10:11;;;;;;;1.30;0.70;;;14.90;99.90;;;;;;5017598;28;20817;-63
2023/09/19 04:12:38;;;;;;;2.90;1.07;;;14.90;99.90;;;;;;5020099;28;20218;-63
2023/09/19 04:15:05;;;;;;;2.47;0.80;;;14.90;99.90;;;;;;5020910;28;20440;-63
2023/09/19 04:17:32;;;;;;;1.67;1.03;;;14.90;99.90;;;;;;5015413;28;20983;-63
2023/09/19 04:19:58;;;;;;;1.63;0.97;;;15.00;99.90;;;;;;5016404;28;20442;-63
2023/09/19 04:22:24;;;;;;;2.23;1.00;;;15.00;99.90;;;;;;5025573;28;20496;-63
2023/09/19 04:24:50;;;;;;;1.70;0.60;;;15.00;99.90;;;;;;5018358;28;20209;-63
2023/09/19 04:27:15;;;;;;;1.73;0.80;;;15.00;99.90;;;;;;5021666;28;20187;-63
2023/09/19 04:29:41;;;;;;;2.50;1.20;;;15.00;99.90;;;;;;5015085;28;20269;-63
2023/09/19 04:32:07;;;;;;;4.70;0.87;;;15.10;99.90;;;;;;5014283;28;20269;-63
2023/09/19 04:34:34;;;;;;;1.70;0.73;;;15.10;99.90;;;;;;5014633;28;20529;-63
2023/09/19 04:37:00;;;;;;;2.00;0.87;;;15.10;99.90;;;;;;5019134;28;20446;-63
2023/09/19 04:39:27;;;;;;;1.20;0.60;;;15.10;99.90;;;;;;5022452;28;20437;-63
2023/09/19 04:41:53;;;;;;;3.37;1.00;;;15.10;99.90;;;;;;5017120;28;20523;-63
2023/09/19 04:44:18;;;;;;;1.33;0.70;;;15.10;99.90;;;;;;5016096;28;21227;-63
2023/09/19 04:46:46;;;;;;;2.53;0.90;;;15.10;99.90;;;;;;5014521;28;20446;-63
2023/09/19 04:49:12;;;;;;;3.20;1.30;;;15.10;99.90;;;;;;5022259;28;20199;-63
2023/09/19 04:51:38;;;;;;;2.37;1.50;;;15.20;99.90;;;;;;5016695;28;20469;-63
2023/09/19 04:54:04;;;;;;;5.73;1.03;;;15.20;99.90;;;;;;5023950;28;21825;-63
2023/09/19 04:56:31;;;;;;;7.43;1.40;;;15.10;99.90;;;;;;5018837;28;20460;-63
2023/09/19 04:58:58;;;;;;;1.90;0.90;;;15.10;99.90;;;;;;5025897;28;20442;-63
2023/09/19 05:01:24;;;;;;;1.83;0.97;;;15.20;99.90;;;;;;5015784;28;20479;-63
2023/09/19 05:03:53;;;;;;;2.70;1.37;;;15.20;99.90;;;;;;5017842;28;20441;-63
2023/09/19 05:06:23;;;;;;;1.27;0.60;;;15.10;99.90;;;;;;5017815;28;20276;-64
2023/09/19 05:08:50;;;;;;;7.17;0.90;;;15.00;99.90;;;;;;5016117;28;20461;-63
2023/09/19 05:11:21;;;;;;;2.33;0.73;;;15.00;99.90;;;;;;5013336;28;20567;-63
2023/09/19 05:13:47;;;;;;;6.63;1.13;;;15.00;99.90;;;;;;5022955;28;20452;-64
2023/09/19 05:16:13;;;;;;;2.13;0.90;;;14.90;99.90;;;;;;5013542;28;21396;-63
2023/09/19 05:18:39;;;;;;;2.30;0.90;;;14.80;99.90;;;;;;5016755;28;20186;-63
2023/09/19 05:21:05;;;;;;;2.13;1.20;;;14.80;99.90;;;;;;5021907;28;20429;-63
2023/09/19 05:23:31;;;;;;;1.50;0.70;;;14.80;99.90;;;;;;5020892;28;21069;-62
2023/09/19 05:25:58;;;;;;;3.93;0.97;;;14.80;99.90;;;;;;5013347;28;20217;-63
2023/09/19 05:28:25;;;;;;;5.10;0.70;;;14.80;99.90;;;;;;5011222;28;20210;-63
2023/09/19 05:30:52;;;;;;;2.77;1.20;;;14.70;99.90;;;;;;5010666;28;20804;-62
2023/09/19 05:33:18;;;;;;;6.37;1.17;;;14.70;99.90;;;;;;5013833;28;20433;-62
2023/09/19 05:35:46;;;;;;;1.60;1.00;;;14.70;99.90;;;;;;5015512;28;20741;-62
2023/09/19 05:38:13;;;;;;;2.80;1.10;;;14.70;99.90;;;;;;5023046;28;20498;-62
2023/09/19 05:40:42;;;;;;;3.37;1.33;;;14.70;99.90;;;;;;5013239;28;20434;-62
2023/09/19 05:43:08;;;;;;;1.40;0.80;;;14.70;99.90;;;;;;5014991;28;20805;-62
2023/09/19 05:45:34;;;;;;;4.00;1.20;;;14.70;99.90;;;;;;5013088;28;20434;-62
2023/09/19 05:48:11;;;;;;;1.63;0.87;;;14.70;99.90;;;;;;5013130;28;20529;-62
2023/09/19 05:50:37;;;;;;;3.30;0.97;;;14.70;99.90;;;;;;5017599;28;20427;-62
2023/09/19 05:53:04;;;;;;;2.53;0.97;;;14.70;99.90;;;;;;5011340;28;20529;-62
2023/09/19 05:55:30;;;;;;;6.00;1.17;;;14.70;99.90;;;;;;5017284;28;20429;-62
2023/09/19 05:57:55;;;;;;;1.60;0.97;;;14.70;99.90;;;;;;5020768;28;20966;-62
2023/09/19 06:00:23;;;;;;;1.67;0.70;;;14.70;99.90;;;;;;5013125;28;20222;-62
2023/09/19 06:02:52;;;;;;;2.30;1.23;;;14.70;99.90;;;;;;5011482;28;20245;-62
2023/09/19 06:05:17;;;;;;;3.00;0.83;;;14.70;99.90;;;;;;5015894;28;20448;-62
2023/09/19 06:07:43;;;;;;;1.70;0.77;;;14.70;99.90;;;;;;5013338;28;20441;-62
2023/09/19 06:10:09;;;;;;;1.30;0.60;;;14.70;99.90;;;;;;5016840;28;20198;-62
2023/09/19 06:12:45;;;;;;;1.60;0.70;;;14.70;99.90;;;;;;5015354;28;20217;-62
2023/09/19 06:15:22;;;;;;;2.20;0.97;;;14.70;99.90;;;;;;5013981;28;20465;-62
2023/09/19 06:17:49;;;;;;;1.30;0.80;;;14.80;99.90;;;;;;5012322;28;20537;-62
2023/09/19 06:20:16;;;;;;;1.50;0.73;;;14.80;99.90;;;;;;5013781;28;20452;-62
2023/09/19 06:22:42;;;;;;;2.23;1.07;;;14.80;99.90;;;;;;5017900;28;20497;-62
2023/09/19 06:25:12;;;;;;;4.20;0.83;;;14.90;99.90;;;;;;5010864;28;21202;-62
2023/09/19 06:27:44;;;;;;;1.60;0.70;;;14.90;99.90;;;;;;5011814;28;20476;-62
2023/09/19 06:30:14;;;;;;;1.40;0.60;;;15.00;99.90;;;;;;5016610;28;20529;-63
2023/09/19 06:32:43;;;;;;;1.63;0.90;;;15.00;99.90;;;;;;5017718;28;20487;-62
2023/09/19 06:35:11;;;;;;;2.70;1.10;;;15.00;99.90;;;;;;5013952;28;20433;-62
2023/09/19 06:37:40;;;;;;;1.63;0.80;;;15.10;99.90;;;;;;5021779;28;20429;-62
2023/09/19 06:40:14;;;;;;;1.40;0.83;;;15.20;99.90;;;;;;5013818;28;20771;-62
2023/09/19 06:42:47;;;;;;;1.63;0.70;;;15.20;99.90;;;;;;5015367;28;20777;-63
2023/09/19 06:45:17;;;;;;;1.83;0.73;;;15.20;99.90;;;;;;5011992;28;20438;-62
2023/09/19 06:47:50;;;;;;;1.57;0.87;;;15.20;99.90;;;;;;5010244;28;21296;-63
2023/09/19 06:50:22;;;;;;;4.53;0.70;;;15.20;99.90;;;;;;5009331;28;20825;-63
2023/09/19 06:52:50;;;;;;;2.03;1.00;;;15.30;99.90;;;;;;5011210;28;20478;-63
2023/09/19 06:55:16;;;;;;;1.60;0.83;;;15.40;99.90;;;;;;5006898;28;20438;-63
2023/09/19 06:57:43;;;;;;;3.93;1.10;;;15.40;99.90;;;;;;5009495;28;20468;-63
2023/09/19 07:00:18;;;;;;;4.60;1.43;;;15.50;99.90;;;;;;5015518;28;20428;-63
2023/09/19 07:02:54;;;;;;;2.23;1.10;;;15.50;99.90;;;;;;5019166;28;21127;-63
2023/09/19 07:05:21;;;;;;;1.70;0.80;;;15.60;99.90;;;;;;5013822;28;20456;-62
2023/09/19 07:07:47;;;;;;;1.93;0.80;;;15.70;99.90;;;;;;5013333;28;20446;-63
2023/09/19 07:10:13;;;;;;;2.23;0.97;;;15.70;99.90;;;;;;5017179;28;20454;-63
2023/09/19 07:12:38;;;;;;;1.40;0.70;;;15.80;99.90;;;;;;5009595;28;20203;-63
2023/09/19 07:15:05;;;;;;;2.23;1.00;;;16.00;99.90;;;;;;5010176;28;20195;-63
2023/09/19 07:17:32;;;;;;;1.70;0.77;;;16.10;99.90;;;;;;5016138;28;20189;-63
2023/09/19 07:19:58;;;;;;;1.93;1.07;;;16.10;99.90;;;;;;5011370;28;20503;-63
2023/09/19 07:22:24;;;;;;;2.57;1.00;;;16.10;99.90;;;;;;5013956;28;20466;-63
2023/09/19 07:24:49;;;;;;;1.40;0.67;;;16.20;99.90;;;;;;5010123;28;20260;-63
2023/09/19 07:27:15;;;;;;;1.50;0.83;;;16.30;99.90;;;;;;5010283;28;20932;-62
2023/09/19 07:29:41;;;;;;;1.70;0.80;;;16.40;99.90;;;;;;5012681;28;20194;-63
2023/09/19 07:32:10;;;;;;;2.63;0.97;;;16.60;99.90;;;;;;5011787;28;20465;-63
2023/09/19 07:34:35;;;;;;;2.53;1.10;;;16.80;99.90;;;;;;5016069;28;20184;-63
2023/09/19 07:37:02;;;;;;;1.80;0.77;;;16.80;99.90;;;;;;5014159;28;20426;-63
2023/09/19 07:39:28;;;;;;;2.83;1.27;;;16.80;99.90;;;;;;5015498;28;20249;-63
2023/09/19 07:41:54;;;;;;;1.33;0.53;;;16.90;99.90;;;;;;5014385;28;20430;-67
2023/09/19 07:44:20;;;;;;;2.10;0.90;;;17.10;99.90;;;;;;5016686;28;20663;-67
2023/09/19 07:46:45;;;;;;;1.53;0.87;;;17.30;99.90;;;;;;5014354;28;20550;-66
2023/09/19 07:49:11;;;;;;;1.50;1.00;;;17.40;99.90;;;;;;5016182;28;20426;-67
2023/09/19 07:51:37;;;;;;;1.80;1.03;;;17.50;99.90;;;;;;5014254;28;20660;-67
2023/09/19 07:54:03;;;;;;;3.80;0.90;;;17.70;99.90;;;;;;5016060;28;20218;-67
2023/09/19 07:56:30;;;;;;;1.43;0.80;;;17.80;99.90;;;;;;5017692;28;20179;-63
2023/09/19 07:58:59;;;;;;;3.10;0.87;;;18.20;99.90;;;;;;5016238;28;20435;-63
2023/09/19 08:01:27;;;;;;;1.50;1.00;;;18.70;99.90;;;;;;5014049;28;20456;-63
2023/09/19 08:03:52;;;;;;;3.57;0.73;;;19.20;99.90;;;;;;5016704;28;20878;-63
2023/09/19 08:06:20;;;;;;;1.40;0.77;;;19.20;99.90;;;;;;5015756;28;20517;-63
2023/09/19 08:08:46;;;;;;;1.67;0.80;;;19.40;99.90;;;;;;5015341;28;20179;-63
2023/09/19 08:11:12;;;;;;;2.67;1.00;;;19.50;99.90;;;;;;5017506;28;20867;-63
2023/09/19 08:13:43;;;;;;;1.83;0.60;;;19.60;99.90;;;;;;5016385;28;20239;-63
2023/09/19 08:16:12;;;;;;;1.30;0.60;;;19.30;99.90;;;;;;5011993;28;20424;-63
2023/09/19 08:18:39;;;;;;;2.00;0.70;;;19.40;99.90;;;;;;5013966;28;20418;-63
2023/09/19 08:21:08;;;;;;;1.50;0.80;;;19.30;99.90;;;;;;5012457;28;20430;-63
2023/09/19 08:23:33;;;;;;;3.40;1.20;;;19.30;99.90;;;;;;5013426;28;20882;-63
2023/09/19 08:26:03;;;;;;;1.60;0.90;;;19.50;99.90;;;;;;5013173;28;20432;-63
2023/09/19 08:28:29;;;;;;;1.60;0.80;;;19.50;99.90;;;;;;5021678;28;20179;-63
2023/09/19 08:30:55;;;;;;;9.77;1.53;;;19.50;99.90;;;;;;5011698;28;20457;-63
2023/09/19 08:33:21;;;;;;;4.77;1.10;;;19.40;99.90;;;;;;5012397;28;20421;-63
2023/09/19 08:35:46;;;;;;;1.77;0.70;;;19.20;99.90;;;;;;5014623;28;20422;-63
2023/09/19 08:38:14;;;;;;;5.43;0.90;;;19.30;99.90;;;;;;5012500;28;20194;-62
2023/09/19 08:40:41;;;;;;;3.83;0.97;;;19.30;99.90;;;;;;5018303;28;20179;-62
2023/09/19 08:43:08;;;;;;;1.50;0.60;;;19.50;99.90;;;;;;5012063;28;20432;-62
2023/09/19 08:45:34;;;;;;;2.17;1.00;;;19.50;99.90;;;;;;5014249;28;20764;-63
2023/09/19 08:48:05;;;;;;;2.37;0.77;;;19.60;99.90;;;;;;5020006;28;20421;-61
2023/09/19 08:50:33;;;;;;;1.80;1.00;;;19.60;99.90;;;;;;5014618;28;20210;-62
2023/09/19 08:53:10;;;;;;;1.87;0.93;;;19.80;99.90;;;;;;5015407;28;20440;-61
2023/09/19 08:55:37;;;;;;;2.47;1.10;;;19.90;99.90;;;;;;5012375;28;20755;-62
2023/09/19 08:58:04;;;;;;;2.27;1.03;;;19.50;99.90;;;;;;5011647;28;20441;-61
2023/09/19 09:00:31;;;;;;;1.60;0.80;;;19.10;99.90;;;;;;5013458;28;20480;-61
2023/09/19 09:02:58;;;;;;;2.27;0.80;;;19.00;99.90;;;;;;5015870;28;20454;-62
2023/09/19 09:05:26;;;;;;;2.43;0.80;;;18.90;99.90;;;;;;5013372;28;20430;-61
2023/09/19 09:07:52;;;;;;;1.20;0.50;;;18.90;99.90;;;;;;5016375;28;20464;-61
2023/09/19 09:10:24;;;;;;;1.77;0.87;;;18.70;99.90;;;;;;4979576;28;1101154;-61
2023/09/19 09:12:52;;;;;;;2.30;1.00;;;18.90;99.90;;;;;;5012037;28;20211;-61
2023/09/19 09:15:22;;;;;;;2.10;0.90;;;19.00;99.90;;;;;;5014973;28;20783;-61
2023/09/19 09:17:52;;;;;;;1.40;0.63;;;19.40;99.90;;;;;;5011840;28;20786;-61
2023/09/19 09:20:18;;;;;;;3.67;0.80;;;19.90;99.90;;;;;;5018029;28;20429;-61
2023/09/19 09:23:03;;;;;;;2.03;0.90;;;20.10;99.90;;;;;;5012631;28;20689;-62
2023/09/19 09:25:54;;;;;;;3.07;0.83;;;20.30;99.90;;;;;;5014751;28;20437;-61
2023/09/19 09:28:21;;;;;;;2.17;0.70;;;20.40;99.90;;;;;;5013021;28;20413;-61
2023/09/19 09:30:47;;;;;;;1.60;0.83;;;20.20;99.80;;;;;;5013801;28;20433;-62
2023/09/19 09:33:15;;;;;;;2.23;1.10;;;20.30;99.90;;;;;;5012728;28;20476;-61
2023/09/19 09:35:51;;;;;;;2.43;1.20;;;20.30;99.90;;;;;;5013002;28;20426;-61
2023/09/19 09:38:21;;;;;;;1.40;0.67;;;20.30;99.40;;;;;;5020014;28;20421;-61
2023/09/19 09:40:59;;;;;;;3.53;1.20;;;19.90;98.60;;;;;;5014154;28;20903;-61
2023/09/19 09:43:36;;;;;;;4.60;1.13;;;19.70;98.80;;;;;;5012413;28;20410;-60
2023/09/19 09:49:14;;;;;;;2.00;0.73;;;19.40;98.80;;;;;;5012303;28;20426;-61
2023/09/19 09:51:39;;;;;;;3.70;1.43;;;19.30;99.10;;;;;;5011614;28;20473;-61
2023/09/19 09:54:15;;;;;;;2.10;1.00;;;19.40;99.00;;;;;;5013542;28;20444;-60
2023/09/19 09:56:59;;;;;;;2.13;0.80;;;19.30;98.80;;;;;;5011474;28;20500;-61
2023/09/19 09:59:53;;;;;;;1.73;0.60;;;19.40;99.90;;;;;;4996682;28;20453;-61
2023/09/19 10:02:28;;;;;;;2.17;1.00;;;19.40;99.30;;;;;;5010805;28;20430;-61
2023/09/19 10:05:14;;;;;;;2.17;0.97;;;19.50;99.90;;;;;;5013750;28;20461;-61
2023/09/19 10:07:42;;;;;;;2.00;0.90;;;19.40;99.20;;;;;;5010554;28;20426;-61
2023/09/19 10:10:21;;;;;;;2.10;1.20;;;19.30;99.80;;;;;;5014464;28;20946;-61
2023/09/19 10:12:48;;;;;;;1.47;0.70;;;19.10;99.90;;;;;;5016587;28;20470;-60
2023/09/19 10:15:20;;;;;;;2.50;1.37;;;19.20;99.90;;;;;;5014347;28;20429;-61
2023/09/19 10:17:47;;;;;;;1.70;0.60;;;19.40;99.60;;;;;;5011368;28;20918;-61
2023/09/19 10:20:33;;;;;;;1.87;0.70;;;19.60;99.80;;;;;;5021426;28;21091;-61
2023/09/19 10:23:12;;;;;;;3.00;1.30;;;19.80;98.90;;;;;;5011748;28;21270;-61
2023/09/19 10:25:39;;;;;;;2.20;0.90;;;20.10;99.90;;;;;;5018153;28;20521;-61
2023/09/19 10:28:10;;;;;;;1.87;0.80;;;20.60;97.90;;;;;;5011403;28;20422;-61
2023/09/19 10:30:41;;;;;;;3.27;0.70;;;20.80;97.70;;;;;;5013762;28;20521;-61
2023/09/19 10:33:08;;;;;;;2.17;0.77;;;20.90;98.30;;;;;;5011586;28;20430;-61
2023/09/19 10:35:37;;;;;;;3.10;0.90;;;21.20;98.10;;;;;;5011970;28;20430;-61
2023/09/19 10:38:03;;;;;;;3.40;0.97;;;21.20;96.90;;;;;;5011097;28;20421;-62
2023/09/19 10:40:32;;;;;;;1.97;0.73;;;21.00;98.50;;;;;;5014727;28;20437;-62
2023/09/19 10:43:10;;;;;;;4.37;1.17;;;20.80;99.60;;;;;;5011149;28;20441;-61
2023/09/19 10:45:39;;;;;;;3.23;1.37;;;20.40;98.40;;;;;;5016720;28;20434;-61
2023/09/19 10:48:07;;;;;;;1.97;0.93;;;20.10;99.60;;;;;;5010393;28;20953;-61
2023/09/19 10:50:44;;;;;;;2.27;1.23;;;20.10;99.30;;;;;;5010675;28;20437;-62
2023/09/19 10:53:13;;;;;;;1.60;0.80;;;20.10;98.70;;;;;;5010213;28;20513;-61
2023/09/19 10:55:39;;;;;;;2.13;1.10;;;20.10;99.30;;;;;;5016069;28;20481;-61
2023/09/19 10:58:14;;;;;;;1.73;0.87;;;20.50;98.20;;;;;;5011646;28;20472;-61
2023/09/19 11:01:02;;;;;;;2.13;0.83;;;20.60;98.00;;;;;;5012514;28;20437;-61
2023/09/19 11:03:31;;;;;;;2.47;1.07;;;20.50;97.90;;;;;;5012565;28;20430;-61
2023/09/19 11:06:15;;;;;;;2.30;0.67;;;20.30;97.70;;;;;;5011109;28;20430;-61
2023/09/19 11:08:57;;;;;;;4.93;0.87;;;20.20;98.10;;;;;;5010538;28;20804;-62
2023/09/19 11:11:41;;;;;;;2.00;1.00;;;20.10;98.40;;;;;;5017312;28;20477;-61
2023/09/19 11:14:25;;;;;;;2.10;0.90;;;19.80;98.50;;;;;;5015127;28;20929;-62
2023/09/19 11:17:21;;;;;;;4.23;1.00;;;19.50;99.20;;;;;;5014118;28;20437;-61
2023/09/19 11:22:58;;;;;;;2.13;0.90;;;19.50;99.00;;;;;;5012576;28;20425;-61
2023/09/19 11:25:29;;;;;;;2.77;0.87;;;19.40;98.70;;;;;;5015046;28;20445;-61
2023/09/19 11:28:08;;;;;;;2.87;0.90;;;19.20;99.40;;;;;;5012140;28;20445;-61
2023/09/19 11:30:38;;;;;;;9.13;0.70;;;19.10;99.60;;;;;;5019809;28;20425;-61
2023/09/19 11:33:23;;;;;;;2.57;1.00;;;19.00;99.50;;;;;;5012350;28;20569;-61
2023/09/19 11:36:08;;;;;;;2.40;0.93;;;19.10;99.60;;;;;;5017989;28;20409;-61
2023/09/19 11:38:46;;;;;;;1.70;0.97;;;19.00;99.90;;;;;;5014255;28;20424;-61
2023/09/19 11:41:27;;;;;;;2.80;0.90;;;19.30;99.90;;;;;;5016542;28;20481;-61
2023/09/19 11:44:00;;;;;;;2.47;1.07;;;19.40;99.90;;;;;;5016413;28;20500;-61
2023/09/19 11:46:28;;;;;;;1.80;1.00;;;19.40;99.90;;;;;;5015776;28;20458;-61
2023/09/19 11:48:55;;;;;;;2.10;1.13;;;19.40;99.90;;;;;;5016419;28;20437;-61
2023/09/19 11:51:26;;;;;;;3.00;0.73;;;19.60;99.90;;;;;;5014126;28;20492;-61
2023/09/19 11:53:56;;;;;;;1.83;0.83;;;19.60;99.90;;;;;;5014748;28;20811;-61
2023/09/19 11:56:26;;;;;;;2.80;0.90;;;19.60;99.20;;;;;;5014361;28;20879;-61
2023/09/19 11:58:54;;;;;;;1.53;0.70;;;19.70;98.80;;;;;;5013644;28;20437;-61
2023/09/19 12:01:32;;;;;;;2.83;0.93;;;20.00;99.10;;;;;;5011332;28;20487;-61
2023/09/19 12:04:00;;;;;;;2.53;1.10;;;19.80;99.20;;;;;;5015233;28;20428;-61
2023/09/19 12:06:27;;;;;;;2.23;0.83;;;19.70;98.40;;;;;;5014854;28;20429;-61
2023/09/19 12:08:58;;;;;;;2.00;0.87;;;19.80;99.10;;;;;;5013685;28;20429;-61
2023/09/19 12:11:33;;;;;;;6.50;1.43;;;20.20;98.80;;;;;;5010947;28;20477;-61
2023/09/19 12:14:00;;;;;;;1.70;0.70;;;20.10;97.90;;;;;;5014747;28;20492;-63
2023/09/19 12:16:30;;;;;;;2.27;1.23;;;20.40;98.40;;;;;;5010955;28;20534;-63
2023/09/19 12:18:57;;;;;;;2.70;0.90;;;20.30;97.70;;;;;;5015595;28;20535;-63
2023/09/19 12:21:27;;;;;;;3.10;1.03;;;20.60;98.60;;;;;;5010742;28;20436;-63
2023/09/19 12:24:13;;;;;;;2.40;0.70;;;20.50;97.80;;;;;;5014467;28;20456;-63
2023/09/19 12:26:43;;;;;;;2.50;0.73;;;20.50;97.40;;;;;;5018211;28;20526;-63
2023/09/19 12:29:20;;;;;;;3.57;1.10;;;20.50;97.70;;;;;;5012927;28;20466;-63
2023/09/19 12:32:03;;;;;;;1.83;0.70;;;20.40;98.20;;;;;;5014798;28;20477;-63
2023/09/19 12:34:37;;;;;;;1.93;1.00;;;20.50;98.90;;;;;;5017445;28;20428;-63
2023/09/19 12:37:11;;;;;;;1.93;0.77;;;20.70;97.80;;;;;;5013218;28;20434;-63
2023/09/19 12:39:38;;;;;;;4.50;1.23;;;20.70;98.40;;;;;;5013405;28;20472;-63
2023/09/19 12:42:08;;;;;;;2.20;0.77;;;20.70;99.30;;;;;;5010339;28;20514;-63
2023/09/19 12:44:36;;;;;;;3.07;1.17;;;20.80;98.10;;;;;;5015203;28;20421;-62
2023/09/19 12:47:14;;;;;;;1.80;0.80;;;20.50;98.70;;;;;;5010591;28;20418;-63
2023/09/19 12:50:06;;;;;;;2.50;0.87;;;20.30;98.90;;;;;;5012436;28;20422;-63
2023/09/19 12:52:51;;;;;;;1.60;1.00;;;20.30;98.70;;;;;;5009620;28;20515;-63
2023/09/19 12:55:43;;;;;;;2.00;0.90;;;20.10;98.70;;;;;;5011247;28;20433;-64
2023/09/19 12:58:12;;;;;;;3.67;1.03;;;20.50;98.40;;;;;;5008550;28;20430;-62
2023/09/19 13:00:40;;;;;;;1.93;0.77;;;20.90;98.40;;;;;;5012121;28;20476;-62
2023/09/19 13:03:35;;;;;;;2.57;0.97;;;21.70;97.20;;;;;;5010115;28;20905;-62
2023/09/19 13:06:03;;;;;;;1.90;0.90;;;22.00;96.90;;;;;;5009180;28;20827;-62